createdAt,value
2023-04-10T00:00:08.806Z,7.16
2023-04-10T00:02:37.599Z,7.15
2023-04-10T00:05:07.864Z,7.19
2023-04-10T00:07:36.220Z,7.11
2023-04-10T00:10:03.755Z,7.09
2023-04-10T00:12:31.599Z,7.03
2023-04-10T00:14:59.520Z,6.98
2023-04-10T00:17:27.102Z,6.97
2023-04-10T00:19:54.611Z,6.94
2023-04-10T00:22:22.060Z,6.90
2023-04-10T00:24:49.593Z,6.87
2023-04-10T00:27:17.172Z,6.88
2023-04-10T00:29:44.773Z,6.85
2023-04-10T00:32:12.291Z,6.81
2023-04-10T00:34:39.726Z,6.82
2023-04-10T00:37:07.525Z,6.78
2023-04-10T00:39:35.015Z,6.77
2023-04-10T00:42:02.586Z,6.68
2023-04-10T00:44:30.155Z,6.63
2023-04-10T00:46:57.605Z,6.60
2023-04-10T00:49:25.253Z,6.56
2023-04-10T00:51:56.206Z,6.49
2023-04-10T00:54:25.660Z,6.44
2023-04-10T00:56:53.486Z,6.45
2023-04-10T00:59:21.439Z,6.41
2023-04-10T01:01:49.023Z,6.39
2023-04-10T01:04:17.079Z,6.44
2023-04-10T01:07:09.612Z,6.66
2023-04-10T01:09:50.654Z,6.65
2023-04-10T01:12:36.884Z,6.75
2023-04-10T01:15:20.419Z,6.69
2023-04-10T01:18:11.256Z,6.92
2023-04-10T01:20:40.418Z,6.54
2023-04-10T01:23:40.127Z,6.72
2023-04-10T01:26:10.741Z,6.53
2023-04-10T01:29:00.800Z,6.67
2023-04-10T01:31:43.070Z,6.58
2023-04-10T01:34:20.229Z,6.48
2023-04-10T01:36:56.194Z,6.58
2023-04-10T01:39:26.704Z,6.44
2023-04-10T01:42:00.195Z,6.52
2023-04-10T01:44:42.184Z,6.58
2023-04-10T01:47:09.908Z,6.57
2023-04-10T01:49:44.773Z,6.64
2023-04-10T01:52:14.381Z,6.65
2023-04-10T01:54:49.269Z,6.66
2023-04-10T01:57:23.342Z,6.71
2023-04-10T01:59:54.180Z,6.78
2023-04-10T02:02:21.777Z,6.83
2023-04-10T02:04:52.250Z,6.85
2023-04-10T02:07:40.133Z,6.95
2023-04-10T02:10:15.857Z,7.05
2023-04-10T02:12:53.952Z,7.11
2023-04-10T02:15:27.080Z,7.13
2023-04-10T02:17:57.262Z,7.30
2023-04-10T02:20:25.677Z,7.37
2023-04-10T02:22:54.877Z,7.64
2023-04-10T02:25:22.532Z,8.39
2023-04-10T02:27:50.062Z,9.26
2023-04-10T02:30:17.680Z,10.22
2023-04-10T02:32:45.421Z,11.10
2023-04-10T02:35:12.921Z,11.95
2023-04-10T02:37:40.613Z,12.73
2023-04-10T02:40:09.419Z,13.58
2023-04-10T02:42:48.168Z,14.23
2023-04-10T02:45:15.768Z,14.83
2023-04-10T02:47:48.006Z,15.51
2023-04-10T02:50:17.705Z,16.10
2023-04-10T02:52:46.924Z,16.76
2023-04-10T02:55:14.476Z,17.33
2023-04-10T02:57:43.200Z,17.88
2023-04-10T03:00:11.687Z,18.36
2023-04-10T03:02:57.898Z,18.88
2023-04-10T03:05:30.231Z,19.37
2023-04-10T03:07:57.796Z,19.90
2023-04-10T03:10:25.545Z,20.54
2023-04-10T03:12:53.287Z,20.92
2023-04-10T03:15:20.923Z,21.34
2023-04-10T03:17:48.450Z,21.86
2023-04-10T03:20:16.321Z,22.25
2023-04-10T03:22:43.724Z,22.61
2023-04-10T03:25:11.858Z,23.04
2023-04-10T03:27:40.794Z,23.45
2023-04-10T03:30:08.977Z,23.89
2023-04-10T03:32:42.641Z,24.23
2023-04-10T03:35:10.984Z,24.61
2023-04-10T03:37:38.540Z,25.01
2023-04-10T03:40:09.319Z,25.18
2023-04-10T03:42:36.950Z,25.67
2023-04-10T03:45:06.812Z,26.12
2023-04-10T03:47:35.317Z,26.45
2023-04-10T03:50:05.720Z,26.72
2023-04-10T03:52:41.243Z,27.11
2023-04-10T03:55:14.719Z,27.31
2023-04-10T03:57:42.620Z,27.58
2023-04-10T04:00:11.244Z,27.90
2023-04-10T04:02:54.537Z,28.14
2023-04-10T04:05:40.983Z,28.45
2023-04-10T04:08:38.967Z,28.80
2023-04-10T04:11:21.255Z,29.04
2023-04-10T04:13:54.669Z,29.42
2023-04-10T04:16:45.218Z,29.70
2023-04-10T04:19:28.119Z,30.00
2023-04-10T04:22:28.596Z,30.29
2023-04-10T04:25:09.085Z,30.58
2023-04-10T04:28:10.068Z,30.78
2023-04-10T04:30:45.062Z,31.26
2023-04-10T04:33:27.539Z,31.38
2023-04-10T04:36:01.617Z,31.67
2023-04-10T04:39:04.425Z,31.97
2023-04-10T04:41:50.112Z,32.11
2023-04-10T04:44:46.440Z,32.30
2023-04-10T04:47:17.260Z,32.59
2023-04-10T04:50:17.099Z,32.87
2023-04-10T04:53:09.192Z,33.14
2023-04-10T04:56:06.388Z,33.38
2023-04-10T04:58:54.245Z,33.70
2023-04-10T05:01:40.548Z,33.82
2023-04-10T05:04:31.075Z,34.06
2023-04-10T05:07:13.881Z,34.39
2023-04-10T05:10:04.725Z,34.58
2023-04-10T05:12:42.290Z,34.85
2023-04-10T05:15:28.947Z,35.03
2023-04-10T05:18:25.827Z,35.23
2023-04-10T05:21:12.656Z,35.22
2023-04-10T05:24:00.575Z,35.52
2023-04-10T05:26:39.558Z,35.62
2023-04-10T05:29:09.648Z,35.73
2023-04-10T05:31:45.953Z,35.79
2023-04-10T05:34:21.419Z,35.81
2023-04-10T05:37:27.363Z,35.94
2023-04-10T05:40:14.896Z,36.14
2023-04-10T05:42:58.232Z,36.33
2023-04-10T05:45:45.702Z,36.35
2023-04-10T05:48:31.851Z,36.28
2023-04-10T05:51:33.774Z,36.08
2023-04-10T05:54:28.874Z,36.22
2023-04-10T05:57:26.142Z,36.32
2023-04-10T06:00:10.880Z,36.38
2023-04-10T06:02:41.304Z,36.69
2023-04-10T06:05:15.926Z,36.78
2023-04-10T06:07:44.504Z,36.75
2023-04-10T06:10:12.086Z,36.79
2023-04-10T06:12:40.111Z,36.76
2023-04-10T06:15:10.753Z,36.82
2023-04-10T06:17:44.716Z,36.64
2023-04-10T06:20:14.790Z,36.48
2023-04-10T06:22:42.499Z,36.35
2023-04-10T06:25:10.587Z,36.30
2023-04-10T06:27:38.226Z,36.30
2023-04-10T06:30:10.905Z,36.23
2023-04-10T06:32:38.576Z,36.23
2023-04-10T06:35:08.017Z,36.41
2023-04-10T06:37:35.560Z,36.50
2023-04-10T06:40:09.875Z,36.58
2023-04-10T06:42:38.003Z,36.60
2023-04-10T06:45:28.309Z,36.55
2023-04-10T06:47:56.058Z,36.56
2023-04-10T06:50:23.678Z,36.72
2023-04-10T06:52:53.409Z,36.87
2023-04-10T06:55:20.828Z,36.89
2023-04-10T06:57:48.421Z,36.87
2023-04-10T07:00:16.339Z,36.97
2023-04-10T07:02:43.850Z,36.91
2023-04-10T07:05:12.125Z,36.78
2023-04-10T07:07:39.592Z,36.45
2023-04-10T07:10:07.795Z,36.15
2023-04-10T07:12:35.669Z,36.24
2023-04-10T07:15:03.179Z,36.33
2023-04-10T07:17:31.471Z,36.13
2023-04-10T07:19:58.942Z,35.67
2023-04-10T07:22:26.915Z,35.15
2023-04-10T07:24:54.400Z,34.46
2023-04-10T07:27:22.023Z,33.73
2023-04-10T07:29:49.513Z,32.90
2023-04-10T07:32:17.178Z,32.08
2023-04-10T07:34:45.110Z,31.21
2023-04-10T07:37:15.759Z,30.63
2023-04-10T07:39:43.275Z,30.06
2023-04-10T07:42:11.882Z,29.57
2023-04-10T07:44:39.586Z,29.21
2023-04-10T07:47:07.049Z,28.58
2023-04-10T07:49:34.511Z,28.17
2023-04-10T07:52:02.085Z,27.61
2023-04-10T07:54:33.640Z,27.46
2023-04-10T07:57:01.516Z,27.10
2023-04-10T07:59:29.222Z,26.81
2023-04-10T08:01:56.852Z,26.45
2023-04-10T08:04:24.699Z,26.22
2023-04-10T08:06:52.366Z,25.93
2023-04-10T08:09:19.911Z,25.71
2023-04-10T08:11:47.373Z,25.60
2023-04-10T08:14:18.261Z,25.38
2023-04-10T08:16:46.293Z,25.17
2023-04-10T08:19:13.816Z,24.85
2023-04-10T08:21:41.278Z,24.78
2023-04-10T08:24:08.857Z,24.70
2023-04-10T08:26:36.561Z,24.66
2023-04-10T08:29:04.119Z,24.52
2023-04-10T08:31:31.653Z,24.34
2023-04-10T08:33:59.623Z,24.08
2023-04-10T08:36:28.210Z,23.88
2023-04-10T08:38:55.936Z,23.64
2023-04-10T08:41:23.485Z,23.42
2023-04-10T08:43:51.318Z,23.23
2023-04-10T08:46:18.929Z,23.00
2023-04-10T08:48:53.455Z,22.89
2023-04-10T08:51:26.329Z,22.70
2023-04-10T08:53:59.645Z,22.86
2023-04-10T08:56:27.832Z,22.42
2023-04-10T08:58:55.684Z,22.02
2023-04-10T09:01:23.890Z,21.96
2023-04-10T09:03:52.121Z,21.71
2023-04-10T09:06:19.612Z,21.51
2023-04-10T09:08:47.102Z,21.19
2023-04-10T09:11:15.164Z,21.03
2023-04-10T09:13:44.301Z,20.78
2023-04-10T09:16:14.121Z,20.60
2023-04-10T09:18:50.169Z,20.67
2023-04-10T09:21:20.365Z,20.41
2023-04-10T09:23:49.414Z,20.16
2023-04-10T09:26:28.766Z,20.29
2023-04-10T09:29:03.895Z,20.01
2023-04-10T09:31:36.194Z,19.82
2023-04-10T09:34:17.979Z,19.84
2023-04-10T09:36:54.881Z,19.63
2023-04-10T09:39:22.913Z,19.14
2023-04-10T09:41:58.018Z,19.21
2023-04-10T09:44:31.297Z,19.11
2023-04-10T09:47:00.519Z,18.89
2023-04-10T09:49:28.032Z,18.76
2023-04-10T09:51:55.904Z,18.57
2023-04-10T09:54:37.175Z,18.83
2023-04-10T09:57:06.013Z,18.39
2023-04-10T09:59:33.803Z,18.30
2023-04-10T10:02:01.569Z,18.14
2023-04-10T10:04:29.741Z,18.06
2023-04-10T10:06:57.447Z,17.98
2023-04-10T10:09:28.249Z,17.91
2023-04-10T10:11:56.732Z,17.80
2023-04-10T10:14:29.339Z,17.84
2023-04-10T10:17:00.746Z,17.67
2023-04-10T10:19:41.172Z,17.78
2023-04-10T10:22:10.548Z,17.54
2023-04-10T10:24:41.649Z,17.49
2023-04-10T10:27:10.723Z,17.38
2023-04-10T10:29:39.974Z,17.32
2023-04-10T10:32:09.087Z,17.22
2023-04-10T10:34:37.027Z,17.07
2023-04-10T10:37:05.043Z,16.91
2023-04-10T10:40:05.873Z,17.20
2023-04-10T10:42:45.819Z,17.00
2023-04-10T10:45:18.572Z,16.72
2023-04-10T10:47:55.805Z,16.79
2023-04-10T10:50:25.958Z,16.50
2023-04-10T10:52:56.315Z,16.49
2023-04-10T10:55:27.837Z,16.44
2023-04-10T10:57:58.177Z,16.40
2023-04-10T11:00:46.962Z,16.41
2023-04-10T11:03:14.588Z,16.37
2023-04-10T11:06:03.238Z,16.64
2023-04-10T11:08:33.721Z,16.43
2023-04-10T11:11:08.640Z,16.23
2023-04-10T11:13:41.213Z,16.35
2023-04-10T11:16:13.628Z,16.30
2023-04-10T11:18:56.044Z,16.40
2023-04-10T11:21:30.732Z,16.25
2023-04-10T11:23:58.180Z,16.30
2023-04-10T11:26:41.703Z,16.46
2023-04-10T11:29:18.190Z,16.29
2023-04-10T11:31:47.329Z,16.33
2023-04-10T11:34:16.188Z,16.34
2023-04-10T11:36:45.017Z,16.32
2023-04-10T11:39:20.904Z,16.43
2023-04-10T11:41:55.754Z,16.40
2023-04-10T11:44:26.782Z,16.40
2023-04-10T11:46:54.414Z,16.34
2023-04-10T11:49:26.894Z,16.31
2023-04-10T11:51:55.106Z,16.25
2023-04-10T11:54:27.669Z,16.37
2023-04-10T11:57:03.333Z,16.31
2023-04-10T11:59:32.900Z,16.18
2023-04-10T12:02:15.061Z,16.35
2023-04-10T12:04:44.481Z,16.17
2023-04-10T12:07:12.471Z,16.11
2023-04-10T12:09:40.883Z,16.11
2023-04-10T12:12:08.946Z,16.04
2023-04-10T12:14:41.026Z,15.99
2023-04-10T12:17:10.683Z,15.91
2023-04-10T12:19:41.987Z,15.91
2023-04-10T12:22:13.206Z,15.81
2023-04-10T12:24:47.850Z,15.79
2023-04-10T12:27:18.363Z,15.61
2023-04-10T12:29:47.183Z,15.12
2023-04-10T12:32:15.118Z,15.06
2023-04-10T12:34:43.238Z,15.00
2023-04-10T12:37:11.013Z,14.81
2023-04-10T12:39:38.460Z,14.66
2023-04-10T12:42:21.139Z,14.58
2023-04-10T12:45:00.684Z,14.59
2023-04-10T12:47:29.872Z,14.30
2023-04-10T12:50:11.852Z,14.46
2023-04-10T12:52:42.488Z,14.30
2023-04-10T12:55:12.042Z,14.04
2023-04-10T12:57:41.681Z,13.98
2023-04-10T13:00:11.509Z,13.51
2023-04-10T13:02:42.879Z,13.44
2023-04-10T13:05:11.459Z,13.28
2023-04-10T13:07:39.861Z,13.19
2023-04-10T13:10:08.243Z,13.12
2023-04-10T13:12:38.262Z,13.13
2023-04-10T13:15:07.972Z,12.98
2023-04-10T13:17:36.082Z,12.89
2023-04-10T13:20:04.969Z,12.87
2023-04-10T13:22:32.437Z,12.69
2023-04-10T13:25:01.829Z,12.62
2023-04-10T13:27:32.199Z,12.33
2023-04-10T13:29:59.802Z,12.22
2023-04-10T13:32:27.280Z,12.19
2023-04-10T13:34:55.083Z,12.08
2023-04-10T13:37:22.969Z,12.03
2023-04-10T13:39:50.705Z,11.85
2023-04-10T13:42:18.304Z,11.90
2023-04-10T13:44:46.178Z,11.75
2023-04-10T13:47:13.698Z,11.68
2023-04-10T13:49:41.529Z,11.64
2023-04-10T13:52:09.006Z,11.59
2023-04-10T13:54:36.625Z,11.45
2023-04-10T13:57:04.256Z,11.39
2023-04-10T13:59:32.016Z,11.28
2023-04-10T14:01:59.700Z,11.24
2023-04-10T14:04:27.272Z,11.09
2023-04-10T14:06:58.135Z,11.08
2023-04-10T14:09:25.597Z,11.03
2023-04-10T14:11:53.252Z,10.90
2023-04-10T14:14:24.272Z,10.84
2023-04-10T14:16:52.006Z,10.69
2023-04-10T14:19:19.995Z,10.49
2023-04-10T14:21:47.572Z,10.49
2023-04-10T14:24:15.656Z,10.44
2023-04-10T14:26:43.120Z,10.45
2023-04-10T14:29:10.793Z,10.47
2023-04-10T14:31:50.507Z,10.39
2023-04-10T14:34:24.560Z,10.27
2023-04-10T14:36:56.209Z,10.20
2023-04-10T14:39:24.964Z,10.05
2023-04-10T14:41:52.807Z,10.14
2023-04-10T14:44:20.373Z,10.10
2023-04-10T14:46:48.013Z,10.09
2023-04-10T14:49:15.543Z,9.80
2023-04-10T14:51:48.635Z,9.92
2023-04-10T14:54:17.305Z,9.79
2023-04-10T14:56:44.798Z,9.79
2023-04-10T14:59:12.351Z,9.73
2023-04-10T15:01:39.982Z,9.71
2023-04-10T15:04:07.562Z,9.65
2023-04-10T15:06:35.217Z,9.56
2023-04-10T15:09:03.501Z,9.48
2023-04-10T15:11:31.203Z,9.40
2023-04-10T15:14:02.633Z,9.44
2023-04-10T15:16:30.848Z,9.36
2023-04-10T15:18:58.369Z,9.29
2023-04-10T15:21:27.641Z,9.25
2023-04-10T15:23:55.577Z,9.23
2023-04-10T15:26:23.304Z,9.20
2023-04-10T15:28:51.237Z,9.09
2023-04-10T15:31:23.236Z,9.12
2023-04-10T15:33:52.388Z,8.98
2023-04-10T15:36:20.180Z,8.85
2023-04-10T15:38:49.900Z,8.89
2023-04-10T15:41:17.812Z,8.88
2023-04-10T15:43:45.660Z,8.78
2023-04-10T15:46:14.423Z,8.76
2023-04-10T15:48:46.247Z,8.75
2023-04-10T15:51:13.691Z,8.71
2023-04-10T15:53:41.228Z,8.67
2023-04-10T15:56:09.262Z,8.60
2023-04-10T15:58:36.906Z,8.54
2023-04-10T16:01:04.685Z,8.51
2023-04-10T16:03:32.353Z,8.44
2023-04-10T16:06:00.191Z,8.40
2023-04-10T16:08:28.660Z,8.32
2023-04-10T16:10:56.598Z,8.32
2023-04-10T16:13:24.184Z,8.27
2023-04-10T16:15:52.336Z,8.25
2023-04-10T16:18:19.863Z,8.17
2023-04-10T16:20:47.356Z,8.14
2023-04-10T16:23:14.830Z,8.06
2023-04-10T16:25:42.520Z,8.04
2023-04-10T16:28:10.638Z,7.98
2023-04-10T16:30:40.029Z,7.92
2023-04-10T16:33:07.621Z,7.89
2023-04-10T16:35:35.219Z,7.87
2023-04-10T16:38:02.774Z,7.85
2023-04-10T16:40:33.018Z,7.72
2023-04-10T16:43:02.211Z,7.64
2023-04-10T16:45:30.331Z,7.65
2023-04-10T16:47:57.921Z,7.62
2023-04-10T16:50:25.620Z,7.55
2023-04-10T16:52:53.275Z,7.50
2023-04-10T16:55:20.929Z,7.57
2023-04-10T16:57:48.470Z,7.49
2023-04-10T17:00:16.284Z,7.41
2023-04-10T17:02:44.271Z,7.31
2023-04-10T17:05:13.781Z,7.26
2023-04-10T17:07:43.073Z,7.27
2023-04-10T17:10:12.004Z,7.18
2023-04-10T17:12:39.821Z,7.08
2023-04-10T17:15:07.842Z,7.08
2023-04-10T17:17:35.507Z,7.05
2023-04-10T17:20:03.464Z,7.00
2023-04-10T17:22:31.169Z,6.95
2023-04-10T17:24:58.697Z,6.82
2023-04-10T17:27:26.358Z,6.80
2023-04-10T17:29:53.809Z,6.73
2023-04-10T17:32:21.250Z,6.74
2023-04-10T17:34:48.815Z,6.70
2023-04-10T17:37:16.311Z,6.72
2023-04-10T17:39:43.813Z,6.68
2023-04-10T17:42:11.357Z,6.57
2023-04-10T17:44:38.798Z,6.60
2023-04-10T17:47:06.294Z,6.55
2023-04-10T17:49:33.731Z,6.57
2023-04-10T17:52:01.404Z,6.58
2023-04-10T17:54:28.901Z,6.51
2023-04-10T17:56:57.319Z,6.49
2023-04-10T17:59:24.759Z,6.49
2023-04-10T18:01:52.376Z,6.49
2023-04-10T18:04:20.060Z,6.45
2023-04-10T18:06:47.704Z,6.44
2023-04-10T18:09:15.520Z,6.43
2023-04-10T18:11:43.018Z,6.40
2023-04-10T18:14:10.741Z,6.37
2023-04-10T18:16:38.430Z,6.35
2023-04-10T18:19:06.034Z,6.25
2023-04-10T18:21:37.090Z,6.25
2023-04-10T18:24:04.752Z,6.20
2023-04-10T18:26:33.595Z,6.16
2023-04-10T18:29:01.671Z,6.17
2023-04-10T18:31:29.334Z,6.11
2023-04-10T18:34:07.248Z,6.10
2023-04-10T18:36:36.146Z,6.10
2023-04-10T18:39:07.086Z,5.99
2023-04-10T18:41:38.676Z,6.01
2023-04-10T18:44:06.273Z,5.99
2023-04-10T18:46:34.005Z,5.88
2023-04-10T18:49:02.173Z,5.91
2023-04-10T18:51:30.009Z,5.94
2023-04-10T18:53:57.688Z,5.91
2023-04-10T18:56:27.771Z,6.03
2023-04-10T18:58:55.594Z,5.91
2023-04-10T19:01:24.979Z,5.90
2023-04-10T19:03:56.244Z,5.85
2023-04-10T19:06:24.581Z,5.82
2023-04-10T19:08:53.046Z,5.86
2023-04-10T19:11:21.315Z,5.83
2023-04-10T19:13:49.186Z,5.80
2023-04-10T19:16:19.749Z,5.77
2023-04-10T19:18:50.002Z,5.73
2023-04-10T19:21:17.435Z,5.72
2023-04-10T19:23:45.646Z,5.68
2023-04-10T19:26:13.343Z,5.69
2023-04-10T19:28:41.056Z,5.69
2023-04-10T19:31:09.268Z,5.69
2023-04-10T19:33:39.446Z,5.71
2023-04-10T19:36:10.156Z,5.74
2023-04-10T19:38:37.873Z,5.62
2023-04-10T19:41:14.390Z,5.76
2023-04-10T19:43:42.551Z,5.60
2023-04-10T19:46:20.396Z,5.77
2023-04-10T19:48:49.113Z,5.63
2023-04-10T19:51:19.248Z,5.60
2023-04-10T19:53:46.924Z,5.62
2023-04-10T19:56:16.943Z,5.68
2023-04-10T19:58:56.108Z,5.57
2023-04-10T20:01:24.602Z,5.54
2023-04-10T20:03:52.176Z,5.53
2023-04-10T20:06:22.017Z,5.51
2023-04-10T20:08:49.840Z,5.47
2023-04-10T20:11:17.557Z,5.45
2023-04-10T20:13:45.118Z,5.44
2023-04-10T20:16:12.688Z,5.38
2023-04-10T20:18:40.255Z,5.38
2023-04-10T20:21:10.601Z,5.35
2023-04-10T20:23:40.938Z,5.30
2023-04-10T20:26:14.695Z,5.42
2023-04-10T20:28:42.162Z,5.26
2023-04-10T20:31:11.407Z,5.24
2023-04-10T20:33:38.991Z,5.22
2023-04-10T20:36:06.865Z,5.14
2023-04-10T20:38:34.418Z,5.18
2023-04-10T20:41:01.943Z,5.17
2023-04-10T20:43:29.509Z,5.13
2023-04-10T20:45:56.948Z,5.13
2023-04-10T20:48:24.357Z,5.12
2023-04-10T20:50:52.208Z,5.07
2023-04-10T20:53:19.675Z,5.04
2023-04-10T20:55:47.264Z,5.03
2023-04-10T20:58:14.791Z,4.97
2023-04-10T21:00:42.332Z,4.96
2023-04-10T21:03:10.005Z,4.94
2023-04-10T21:05:44.178Z,5.05
2023-04-10T21:08:12.722Z,5.34
2023-04-10T21:10:46.287Z,5.04
2023-04-10T21:13:14.994Z,5.02
2023-04-10T21:15:43.187Z,4.95
2023-04-10T21:18:11.336Z,4.93
2023-04-10T21:20:39.457Z,4.87
2023-04-10T21:23:07.364Z,4.88
2023-04-10T21:25:36.038Z,4.88
2023-04-10T21:28:03.501Z,4.76
2023-04-10T21:30:31.043Z,4.78
2023-04-10T21:32:58.555Z,4.78
2023-04-10T21:35:27.372Z,4.78
2023-04-10T21:37:58.347Z,4.77
2023-04-10T21:40:32.909Z,4.78
2023-04-10T21:43:04.158Z,4.86
2023-04-10T21:45:34.954Z,4.72
2023-04-10T21:48:02.722Z,4.68
2023-04-10T21:50:30.204Z,4.67
2023-04-10T21:52:57.755Z,4.65
2023-04-10T21:55:25.247Z,4.45
2023-04-10T21:57:52.812Z,4.59
2023-04-10T22:00:22.590Z,4.55
2023-04-10T22:02:51.406Z,4.54
2023-04-10T22:05:18.999Z,4.44
2023-04-10T22:07:46.492Z,4.46
2023-04-10T22:10:13.993Z,4.44
2023-04-10T22:12:41.623Z,4.43
2023-04-10T22:15:10.048Z,4.35
2023-04-10T22:17:37.558Z,4.34
2023-04-10T22:20:05.580Z,4.32
2023-04-10T22:22:33.192Z,4.25
2023-04-10T22:25:00.647Z,4.20
2023-04-10T22:27:28.235Z,4.21
2023-04-10T22:30:03.254Z,4.05
2023-04-10T22:32:32.370Z,4.18
2023-04-10T22:35:00.422Z,4.15
2023-04-10T22:37:28.387Z,4.14
2023-04-10T22:39:58.646Z,4.13
2023-04-10T22:42:28.813Z,4.09
2023-04-10T22:44:57.386Z,4.07
2023-04-10T22:47:24.856Z,4.06
2023-04-10T22:49:52.669Z,4.03
2023-04-10T22:52:20.269Z,4.04
2023-04-10T22:54:47.789Z,4.05
2023-04-10T22:57:15.307Z,4.04
2023-04-10T22:59:42.854Z,4.02
2023-04-10T23:02:10.391Z,4.02
2023-04-10T23:04:38.046Z,4.02
2023-04-10T23:07:05.622Z,3.98
2023-04-10T23:09:33.170Z,3.96
2023-04-10T23:12:01.913Z,3.97
2023-04-10T23:14:29.438Z,3.92
2023-04-10T23:16:56.866Z,3.91
2023-04-10T23:19:24.365Z,3.92
2023-04-10T23:21:53.705Z,3.90
2023-04-10T23:24:21.174Z,3.87
2023-04-10T23:26:48.710Z,3.86
2023-04-10T23:29:16.248Z,3.83
2023-04-10T23:31:43.664Z,3.80
2023-04-10T23:34:11.082Z,3.77
2023-04-10T23:36:38.525Z,3.79
2023-04-10T23:39:05.966Z,3.65
2023-04-10T23:41:33.860Z,3.72
2023-04-10T23:44:01.361Z,3.73
2023-04-10T23:46:28.834Z,3.68
2023-04-10T23:48:57.021Z,3.65
2023-04-10T23:51:24.476Z,3.62
2023-04-10T23:53:51.957Z,3.64
2023-04-10T23:56:21.644Z,3.66
2023-04-10T23:58:49.143Z,3.57
